Time;durP1;ratioP1;P1;durP2;ratioP2;P2;SDS_P1;SDS_P2;PMS_P1;PMS_P2;Temp;Humidity;BMP_temperature;BMP_pressure;BME280_temperature;BME280_humidity;BME280_pressure;Samples;Min_cycle;Max_cycle;Signal;HPM_P1;HPM_P2
2024/03/06 00:02:02;;;;;;;;;73.67;56.00;;;;;5.75;100.00;99317.56;6315954;20;3631493;-41
2024/03/06 00:04:33;;;;;;;;;68.67;55.00;;;;;5.62;100.00;99325.25;6317609;20;3620050;-45
2024/03/06 00:07:02;;;;;;;;;75.33;58.33;;;;;5.66;100.00;99326.81;6315951;20;3617967;-44
2024/03/06 00:09:32;;;;;;;;;80.00;59.67;;;;;5.54;100.00;99325.63;6317930;20;3624612;-44
2024/03/06 00:12:02;;;;;;;;;72.33;58.67;;;;;5.49;100.00;99335.63;6319150;20;2871225;-44
2024/03/06 00:14:31;;;;;;;;;77.67;57.67;;;;;5.52;100.00;99330.16;6317223;20;3641918;-45
2024/03/06 00:17:03;;;;;;;;;74.67;56.33;;;;;5.80;100.00;99340.38;6316595;20;3638996;-44
2024/03/06 00:19:32;;;;;;;;;69.00;56.00;;;;;5.59;100.00;99342.25;6318092;20;3626281;-44
2024/03/06 00:22:02;;;;;;;;;79.00;60.33;;;;;5.31;100.00;99342.66;6316347;20;3640123;-44
2024/03/06 00:24:32;;;;;;;;;72.33;56.00;;;;;5.62;100.00;99335.91;6315245;20;2869260;-44
2024/03/06 00:27:04;;;;;;;;;70.67;55.67;;;;;5.89;100.00;99342.59;6316930;20;3621099;-44
2024/03/06 00:29:36;;;;;;;;;68.00;55.33;;;;;5.69;100.00;99345.34;6315087;20;3618015;-44
2024/03/06 00:32:06;;;;;;;;;78.67;59.67;;;;;5.84;100.00;99346.41;6316710;20;3630542;-44
2024/03/06 00:34:35;;;;;;;;;81.00;57.33;;;;;5.67;100.00;99352.53;6316025;20;3648228;-43
2024/03/06 00:37:05;;;;;;;;;77.33;60.33;;;;;5.64;100.00;99350.03;6316198;20;3612912;-44
2024/03/06 00:39:35;;;;;;;;;75.33;58.00;;;;;5.48;100.00;99349.88;6316458;20;3637775;-44
2024/03/06 00:42:05;;;;;;;;;73.67;57.67;;;;;5.21;100.00;99352.88;6316799;20;3622247;-44
2024/03/06 00:44:34;;;;;;;;;74.00;56.00;;;;;5.27;100.00;99357.03;6316085;20;3641919;-46
2024/03/06 00:47:04;;;;;;;;;72.67;55.67;;;;;5.12;100.00;99355.06;6314962;20;3622241;-41
2024/03/06 00:49:34;;;;;;;;;73.67;55.33;;;;;4.84;100.00;99348.28;6315054;20;3636785;-43
2024/03/06 00:52:04;;;;;;;;;80.00;59.00;;;;;4.88;100.00;99349.91;6316156;20;3659622;-43
2024/03/06 00:54:33;;;;;;;;;74.00;57.00;;;;;4.97;100.00;99343.28;6281975;20;3638828;-43
2024/03/06 00:57:03;;;;;;;;;73.67;56.00;;;;;5.08;100.00;99346.34;6315346;20;3641997;-43
2024/03/06 00:59:33;;;;;;;;;75.33;59.00;;;;;4.71;100.00;99339.97;6315974;20;3633704;-43
2024/03/06 01:02:02;;;;;;;;;78.00;57.00;;;;;4.31;100.00;99346.13;6313505;20;3631489;-43
2024/03/06 01:04:32;;;;;;;;;74.67;57.00;;;;;4.62;100.00;99346.56;6314542;20;3632926;-43
2024/03/06 01:07:02;;;;;;;;;75.00;58.33;;;;;4.73;100.00;99347.91;6315067;20;3632564;-44
2024/03/06 01:09:31;;;;;;;;;71.67;55.33;;;;;4.79;100.00;99342.31;6314503;20;3617298;-43
2024/03/06 01:12:01;;;;;;;;;69.33;55.00;;;;;4.75;100.00;99348.69;6316237;20;3626371;-43
2024/03/06 01:14:30;;;;;;;;;71.00;56.00;;;;;4.60;100.00;99352.88;6314505;20;2872162;-44
2024/03/06 01:17:00;;;;;;;;;73.67;57.00;;;;;4.55;100.00;99352.19;6283199;20;2878453;-43
2024/03/06 01:19:30;;;;;;;;;75.67;57.00;;;;;4.78;100.00;99348.56;6312765;20;3639846;-44
2024/03/06 01:21:59;;;;;;;;;70.67;57.67;;;;;4.59;100.00;99348.50;6313642;20;3612755;-44
2024/03/06 01:24:29;;;;;;;;;69.00;53.67;;;;;4.83;100.00;99350.09;6312267;20;3629473;-44
2024/03/06 01:27:02;;;;;;;;;74.00;55.67;;;;;4.75;100.00;99354.03;6314409;20;3623347;-43
2024/03/06 01:29:32;;;;;;;;;66.33;54.00;;;;;4.55;100.00;99346.88;6315037;20;3627367;-42
2024/03/06 01:32:02;;;;;;;;;70.33;53.67;;;;;4.34;100.00;99352.16;6315435;20;3642958;-43
2024/03/06 01:34:31;;;;;;;;;68.67;49.00;;;;;4.56;100.00;99344.19;6314060;20;3640985;-43
2024/03/06 01:37:01;;;;;;;;;72.33;56.67;;;;;4.39;100.00;99352.84;6314698;20;2878538;-43
2024/03/06 01:39:30;;;;;;;;;71.00;55.00;;;;;4.79;100.00;99347.63;6314210;20;3627384;-45
2024/03/06 01:42:00;;;;;;;;;73.67;55.67;;;;;4.25;100.00;99349.03;6314221;20;3643044;-43
2024/03/06 01:44:30;;;;;;;;;79.33;57.33;;;;;4.61;100.00;99339.53;6310538;20;3628396;-43
2024/03/06 01:46:59;;;;;;;;;58.50;44.50;;;;;4.36;100.00;99345.00;6314435;20;2870064;-43
2024/03/06 01:49:29;;;;;;;;;73.00;55.00;;;;;4.36;100.00;99352.97;6280917;20;3649243;-42
2024/03/06 01:52:14;;;;;;;;;71.00;53.67;;;;;4.24;100.00;99352.59;6311001;20;3628360;-42
2024/03/06 01:54:47;;;;;;;;;76.00;58.67;;;;;4.32;100.00;99345.22;6314334;20;3636720;-42
2024/03/06 01:57:18;;;;;;;;;76.33;54.00;;;;;4.25;100.00;99339.28;6311790;20;3653450;-43
2024/03/06 01:59:49;;;;;;;;;75.67;55.67;;;;;4.29;100.00;99345.31;6313293;20;3647275;-43
2024/03/06 02:02:20;;;;;;;;;63.50;50.50;;;;;4.27;100.00;99347.19;6311203;20;2875401;-42
2024/03/06 02:04:49;;;;;;;;;72.67;53.67;;;;;4.53;100.00;99348.75;6280768;20;3638831;-42
2024/03/06 02:07:21;;;;;;;;;66.00;52.00;;;;;4.45;100.00;99359.72;6312570;20;2868217;-42
2024/03/06 02:09:51;;;;;;;;;66.33;51.00;;;;;3.79;100.00;99356.19;6314553;20;2876383;-42
2024/03/06 02:12:20;;;;;;;;;69.33;53.67;;;;;3.90;100.00;99367.28;6311650;20;3633669;-42
2024/03/06 02:14:50;;;;;;;;;70.33;54.33;;;;;3.54;100.00;99365.13;6311787;20;3629520;-43
2024/03/06 02:17:18;;;;;;;;;61.00;48.00;;;;;3.06;100.00;99360.72;6315497;20;2862844;-43
2024/03/06 02:19:48;;;;;;;;;69.33;50.33;;;;;3.07;100.00;99352.69;6283256;20;3633646;-43
2024/03/06 02:22:18;;;;;;;;;68.33;54.33;;;;;3.08;100.00;99350.91;6315472;20;2874305;-44
2024/03/06 02:24:50;;;;;;;;;67.67;52.00;;;;;3.85;100.00;99353.31;6313387;20;2868882;-43
2024/03/06 02:27:20;;;;;;;;;64.67;50.00;;;;;4.03;100.00;99349.94;6313793;20;3634742;-43
2024/03/06 02:29:50;;;;;;;;;61.67;49.00;;;;;3.62;100.00;99347.09;6309628;20;2866965;-44
2024/03/06 02:32:19;;;;;;;;;67.00;54.00;;;;;3.91;100.00;99353.06;6314334;20;2878529;-43
2024/03/06 02:34:49;;;;;;;;;63.00;48.67;;;;;4.05;100.00;99348.03;6312027;20;2873229;-43
2024/03/06 02:37:19;;;;;;;;;73.00;56.00;;;;;4.16;100.00;99353.81;6313226;20;2881595;-42
2024/03/06 02:39:49;;;;;;;;;71.67;56.67;;;;;4.44;100.00;99360.63;6313187;20;2861245;-43
2024/03/06 02:42:18;;;;;;;;;73.33;56.33;;;;;4.21;100.00;99347.44;6313686;20;3624230;-43
2024/03/06 02:44:48;;;;;;;;;67.00;53.00;;;;;3.86;100.00;99357.69;6311191;20;2871853;-42
2024/03/06 02:47:17;;;;;;;;;78.00;54.67;;;;;3.39;100.00;99352.41;6313610;20;3655516;-44
2024/03/06 02:49:47;;;;;;;;;62.67;49.33;;;;;3.60;100.00;99345.44;6310358;20;2871136;-43
2024/03/06 02:52:17;;;;;;;;;65.67;51.67;;;;;3.76;100.00;99343.03;6311907;20;2871343;-44
2024/03/06 02:54:45;;;;;;;;;60.00;49.50;;;;;3.12;100.00;99344.56;6311326;20;2872191;-43
2024/03/06 02:57:15;;;;;;;;;63.33;49.67;;;;;3.51;100.00;99344.88;6283292;20;2877428;-47
2024/03/06 02:59:44;;;;;;;;;58.00;48.00;;;;;3.59;100.00;99349.88;6311037;20;2866955;-44
2024/03/06 03:02:13;;;;;;;;;64.50;51.00;;;;;3.69;100.00;99353.91;6279028;20;2867996;-46
2024/03/06 03:04:43;;;;;;;;;76.00;56.00;;;;;3.88;100.00;99346.06;6276645;20;3638806;-48
2024/03/06 03:07:12;;;;;;;;;77.33;57.00;;;;;3.74;100.00;99346.63;6309288;20;3652331;-46
2024/03/06 03:09:42;;;;;;;;;70.33;53.00;;;;;3.79;100.00;99350.88;6309989;20;3643031;-45
2024/03/06 03:12:11;;;;;;;;;57.50;49.50;;;;;3.62;100.00;99354.22;6304818;20;2494063;-45
2024/03/06 03:14:43;;;;;;;;;66.00;53.50;;;;;3.41;100.00;99353.22;6279694;20;2860779;-43
2024/03/06 03:17:15;;;;;;;;;63.67;50.33;;;;;3.14;100.00;99348.03;6282223;20;3631473;-44
2024/03/06 03:19:44;;;;;;;;;60.00;48.50;;;;;3.59;100.00;99355.19;6313079;20;2862805;-45
2024/03/06 03:22:13;;;;;;;;;63.50;50.50;;;;;4.00;100.00;99350.03;6281857;20;2857592;-44
2024/03/06 03:24:43;;;;;;;;;65.67;49.67;;;;;4.07;100.00;99350.66;6280226;20;2868040;-43
2024/03/06 03:27:11;;;;;;;;;61.00;47.50;;;;;3.75;100.00;99347.50;6313213;20;2862763;-43
2024/03/06 03:29:41;;;;;;;;;57.00;45.67;;;;;3.64;100.00;99353.22;6279589;20;2858617;-47
2024/03/06 03:32:09;;;;;;;;;58.50;45.00;;;;;3.90;100.00;99356.66;6308329;20;2496268;-44
2024/03/06 03:34:39;;;;;;;;;63.33;50.00;;;;;4.23;100.00;99358.88;6276890;20;2866113;-43
2024/03/06 03:37:08;;;;;;;;;61.67;49.33;;;;;3.78;100.00;99360.63;6312454;20;2865995;-44
2024/03/06 03:39:37;;;;;;;;;63.00;49.50;;;;;3.37;100.00;99359.56;6312867;20;2869117;-43
2024/03/06 03:42:07;;;;;;;;;64.33;49.33;;;;;3.03;100.00;99366.13;6280849;20;2875391;-43
2024/03/06 03:44:36;;;;;;;;;67.33;51.00;;;;;2.78;100.00;99366.13;6306842;20;2869121;-44
2024/03/06 03:47:06;;;;;;;;;58.00;45.00;;;;;3.19;100.00;99377.91;6312560;20;2874409;-42
2024/03/06 03:49:36;;;;;;;;;63.67;50.00;;;;;3.31;100.00;99371.28;6278384;20;2875341;-43
2024/03/06 03:52:06;;;;;;;;;60.33;47.00;;;;;3.01;100.00;99368.81;6317947;20;2867979;-43
2024/03/06 03:54:36;;;;;;;;;59.67;44.00;;;;;2.39;100.00;99372.72;6312426;20;2871525;-43
2024/03/06 03:57:08;;;;;;;;;58.67;45.33;;;;;2.95;100.00;99373.47;6317595;20;2867988;-43
2024/03/06 03:59:39;;;;;;;;;60.00;46.00;;;;;3.49;100.00;99375.91;6318816;20;2863816;-44
2024/03/06 04:02:09;;;;;;;;;56.50;46.50;;;;;3.61;100.00;99377.25;6286305;20;2855556;-44
2024/03/06 04:04:38;;;;;;;;;63.00;47.00;;;;;3.25;100.00;99377.69;6285521;20;2716989;-44
2024/03/06 04:07:07;;;;;;;;;65.67;49.33;;;;;3.04;100.00;99378.47;6316986;20;2880523;-45
2024/03/06 04:09:39;;;;;;;;;57.50;46.00;;;;;3.50;100.00;99372.34;6315455;20;2862964;-44
2024/03/06 04:12:09;;;;;;;;;66.67;47.33;;;;;3.38;100.00;99377.22;6286556;20;2878621;-44
2024/03/06 04:14:39;;;;;;;;;67.00;48.00;;;;;3.18;100.00;99378.81;6316203;20;2876386;-45
2024/03/06 04:17:08;;;;;;;;;57.50;46.00;;;;;3.24;100.00;99378.63;6317098;20;2851462;-43
2024/03/06 04:19:37;;;;;;;;;55.00;43.50;;;;;3.28;100.00;99380.22;6287780;20;2856527;-44
2024/03/06 04:22:06;;;;;;;;;60.00;47.50;;;;;3.45;100.00;99384.03;6286715;20;2865913;-44
2024/03/06 04:24:34;;;;;;;;;60.00;48.50;;;;;3.77;100.00;99384.63;6284670;20;2860705;-44
2024/03/06 04:27:04;;;;;;;;;65.33;48.67;;;;;3.08;100.00;99380.97;6286811;20;2874316;-44
2024/03/06 04:29:33;;;;;;;;;63.00;49.50;;;;;3.40;100.00;99388.66;6316858;20;2881548;-44
2024/03/06 04:32:02;;;;;;;;;68.00;50.00;;;;;3.85;100.00;99387.84;6286108;20;3633601;-44
2024/03/06 04:34:32;;;;;;;;;58.67;45.00;;;;;3.54;100.00;99390.78;6315503;20;3612874;-44
2024/03/06 04:37:01;;;;;;;;;72.00;52.67;;;;;3.24;100.00;99396.31;6316524;20;3636721;-43
2024/03/06 04:39:33;;;;;;;;;71.00;54.00;;;;;3.40;100.00;99393.97;6316478;20;3629400;-44
2024/03/06 04:42:02;;;;;;;;;70.00;53.33;;;;;3.57;100.00;99410.13;6315979;20;3633549;-44
2024/03/06 04:44:35;;;;;;;;;70.33;51.33;;;;;3.69;100.00;99399.03;6315544;20;3638929;-45
2024/03/06 04:47:04;;;;;;;;;69.33;53.00;;;;;3.68;100.00;99397.28;6315801;20;3643026;-43
2024/03/06 04:49:34;;;;;;;;;69.33;54.67;;;;;3.71;100.00;99407.81;6315310;20;3628378;-45
2024/03/06 04:52:04;;;;;;;;;71.00;55.00;;;;;3.73;100.00;99400.63;6316596;20;3625344;-43
2024/03/06 04:54:35;;;;;;;;;103.50;78.75;;;;;3.87;100.00;99412.53;6311572;20;3688865;-44
2024/03/06 04:57:04;;;;;;;;;86.33;64.33;;;;;3.94;100.00;99400.75;6282382;20;3641928;-44
2024/03/06 04:59:34;;;;;;;;;72.33;56.00;;;;;3.85;100.00;99415.25;6315948;20;3646196;-44
2024/03/06 05:02:03;;;;;;;;;69.33;54.00;;;;;4.04;100.00;99414.53;6312822;20;2876554;-44
2024/03/06 05:04:33;;;;;;;;;70.00;52.67;;;;;4.08;100.00;99410.81;6314787;20;2878519;-46
2024/03/06 05:07:16;;;;;;;;;70.67;54.00;;;;;4.23;100.00;99414.66;6315867;20;3633651;-43
2024/03/06 05:10:01;;;;;;;;;61.00;48.50;;;;;3.91;100.00;99412.34;6316169;20;2859797;-44
2024/03/06 05:12:44;;;;;;;;;66.00;50.00;;;;;4.01;100.00;99409.34;6284424;20;2885830;-44
2024/03/06 05:15:27;;;;;;;;;67.67;51.00;;;;;3.78;100.00;99418.19;6313164;20;2878448;-43
2024/03/06 05:18:11;;;;;;;;;68.67;52.00;;;;;3.72;100.00;99414.84;6316305;20;2890093;-44
2024/03/06 05:20:54;;;;;;;;;67.00;51.00;;;;;3.85;100.00;99419.69;6316060;20;3623251;-43
2024/03/06 05:23:37;;;;;;;;;68.67;51.67;;;;;3.66;100.00;99423.06;6315663;20;2877524;-43
2024/03/06 05:26:21;;;;;;;;;68.67;53.33;;;;;3.77;100.00;99421.78;6314908;20;3631526;-45
2024/03/06 05:29:04;;;;;;;;;64.33;50.00;;;;;4.18;100.00;99421.00;6316206;20;3628377;-44
2024/03/06 05:31:47;;;;;;;;;70.50;56.50;;;;;3.47;100.00;99420.19;6312450;20;2864866;-44
2024/03/06 05:34:29;;;;;;;;;67.00;53.50;;;;;4.03;100.00;99419.00;6286074;20;2856688;-43
2024/03/06 05:37:13;;;;;;;;;64.67;49.33;;;;;3.76;100.00;99425.34;6283592;20;3619997;-43
2024/03/06 05:39:55;;;;;;;;;56.00;45.50;;;;;3.95;100.00;99421.94;6316012;20;2862804;-43
2024/03/06 05:42:39;;;;;;;;;63.33;51.00;;;;;4.40;100.00;99436.13;6282743;20;2874387;-45
2024/03/06 05:45:23;;;;;;;;;60.00;46.67;;;;;4.60;100.00;99438.81;6314102;20;2878555;-43
2024/03/06 05:48:06;;;;;;;;;58.00;47.50;;;;;4.18;100.00;99436.97;6316394;20;2865900;-43
2024/03/06 05:50:50;;;;;;;;;73.67;56.67;;;;;4.50;100.00;99439.25;6281753;20;3639891;-44
2024/03/06 05:53:42;;;;;;;;;75.67;58.67;;;;;4.70;100.00;99443.78;6302874;20;2878605;-44
2024/03/06 05:56:25;;;;;;;;;80.67;62.67;;;;;4.85;100.00;99443.13;6308348;20;3636708;-43
2024/03/06 05:59:09;;;;;;;;;80.67;60.67;;;;;5.09;100.00;99443.03;6310133;20;3630525;-45
2024/03/06 06:01:39;;;;;;;;;72.00;56.33;;;;;5.57;100.00;99444.44;6310134;20;2879563;-45
2024/03/06 06:04:10;;;;;;;;;76.00;57.33;;;;;5.83;100.00;99452.13;6311252;20;3635759;-43
2024/03/06 06:06:39;;;;;;;;;79.33;59.33;;;;;6.38;100.00;99454.88;6310243;20;3641943;-44
2024/03/06 06:09:15;;;;;;;;;78.33;54.00;;;;;7.04;100.00;99450.75;6308826;20;3653515;-45
2024/03/06 06:11:45;;;;;;;;;67.67;54.00;;;;;7.73;100.00;99457.81;6308011;20;3629425;-43
2024/03/06 06:14:15;;;;;;;;;71.00;54.00;;;;;8.97;100.00;99464.25;6308997;20;3634734;-45
2024/03/06 06:16:44;;;;;;;;;64.33;51.33;;;;;9.11;99.88;99473.31;6310078;20;2858751;-46
2024/03/06 06:19:14;;;;;;;;;60.67;46.67;;;;;9.26;98.17;99475.06;6310524;20;3638859;-49
2024/03/06 06:21:43;;;;;;;;;57.33;45.33;;;;;10.33;91.35;99479.22;6310927;20;2867060;-44
2024/03/06 06:24:13;;;;;;;;;61.33;47.33;;;;;10.66;88.40;99477.97;6308938;20;3637830;-47
2024/03/06 06:26:43;;;;;;;;;58.67;44.67;;;;;9.27;92.70;99476.81;6309676;20;2865046;-44
2024/03/06 06:29:11;;;;;;;;;54.50;44.00;;;;;7.76;100.00;99478.19;6310604;20;2857543;-45
2024/03/06 06:31:41;;;;;;;;;58.00;45.67;;;;;7.91;100.00;99480.03;6276483;20;3631732;-44
2024/03/06 06:34:11;;;;;;;;;57.33;46.67;;;;;7.70;100.00;99485.56;6309665;20;3609819;-45
2024/03/06 06:36:46;;;;;;;;;55.67;42.33;;;;;7.70;100.00;99490.91;6307928;20;2865096;-44
2024/03/06 06:39:16;;;;;;;;;61.33;50.33;;;;;7.31;100.00;99483.19;6309681;20;2877493;-43
2024/03/06 06:41:46;;;;;;;;;62.33;50.00;;;;;7.18;100.00;99487.41;6309611;20;3627387;-45
2024/03/06 06:44:14;;;;;;;;;59.50;46.00;;;;;6.93;100.00;99474.47;6308902;20;2856528;-44
2024/03/06 06:46:44;;;;;;;;;63.67;47.00;;;;;6.83;100.00;99484.72;6276246;20;3636933;-44
2024/03/06 06:49:13;;;;;;;;;54.50;43.50;;;;;6.74;100.00;99488.72;6309161;20;2854445;-44
2024/03/06 06:51:42;;;;;;;;;54.33;45.33;;;;;6.98;100.00;99485.78;6274921;20;2860704;-46
2024/03/06 06:54:11;;;;;;;;;51.00;40.50;;;;;6.93;100.00;99482.47;6307978;20;2855558;-46
2024/03/06 06:56:40;;;;;;;;;68.33;51.67;;;;;6.94;100.00;99485.03;6277867;20;3623252;-44
2024/03/06 06:59:10;;;;;;;;;78.67;59.33;;;;;7.16;100.00;99486.63;6309811;20;3640971;-44
2024/03/06 07:01:43;;;;;;;;;70.00;52.33;;;;;7.07;100.00;99495.97;6308519;20;3647181;-44
2024/03/06 07:04:13;;;;;;;;;58.33;47.00;;;;;7.32;100.00;99492.94;6307408;20;3621276;-45
2024/03/06 07:06:42;;;;;;;;;59.33;46.33;;;;;7.25;100.00;99488.84;6309825;20;2870165;-45
2024/03/06 07:09:12;;;;;;;;;51.50;40.50;;;;;7.38;100.00;99489.09;6310262;20;2850390;-44
2024/03/06 07:11:42;;;;;;;;;62.00;50.33;;;;;7.51;100.00;99490.16;6277256;20;2879619;-46
2024/03/06 07:14:15;;;;;;;;;60.67;49.67;;;;;7.29;100.00;99478.84;6307843;20;2865200;-45
2024/03/06 07:16:45;;;;;;;;;56.33;46.00;;;;;7.48;100.00;99491.19;6307207;20;2869251;-44
2024/03/06 07:19:16;;;;;;;;;63.00;50.33;;;;;7.56;100.00;99488.13;6308697;20;3629511;-43
2024/03/06 07:21:46;;;;;;;;;68.33;53.67;;;;;7.65;100.00;99489.44;6307940;20;3630509;-44
2024/03/06 07:24:15;;;;;;;;;70.67;54.33;;;;;7.69;100.00;99491.88;6307405;20;3632569;-43
2024/03/06 07:26:45;;;;;;;;;70.33;54.00;;;;;7.75;100.00;99493.34;6312498;20;3636706;-44
2024/03/06 07:29:15;;;;;;;;;78.33;58.67;;;;;7.58;100.00;99496.94;6314679;20;3648154;-44
2024/03/06 07:31:45;;;;;;;;;77.33;60.00;;;;;7.79;100.00;99497.56;6278050;20;3615889;-44
2024/03/06 07:34:15;;;;;;;;;76.33;58.33;;;;;7.89;100.00;99492.63;6312067;20;3632546;-44
2024/03/06 07:36:46;;;;;;;;;77.67;60.67;;;;;8.08;100.00;99496.03;6314156;20;3627340;-46
2024/03/06 07:39:20;;;;;;;;;74.33;58.00;;;;;8.00;100.00;99486.69;6312422;20;2875427;-44
2024/03/06 07:41:50;;;;;;;;;69.00;54.67;;;;;8.23;100.00;99491.63;6315590;20;3628478;-45
2024/03/06 07:44:20;;;;;;;;;71.33;54.33;;;;;8.45;100.00;99510.09;6312338;20;3632583;-45
2024/03/06 07:46:49;;;;;;;;;65.00;50.50;;;;;8.64;100.00;99511.75;6317055;20;2572367;-44
2024/03/06 07:49:18;;;;;;;;;65.33;51.33;;;;;8.53;100.00;99509.63;6313184;20;3618987;-46
2024/03/06 07:51:48;;;;;;;;;64.33;50.00;;;;;8.60;100.00;99504.81;6311333;20;3637801;-47
2024/03/06 07:54:18;;;;;;;;;65.67;52.67;;;;;8.30;100.00;99505.56;6309241;20;3629836;-45
2024/03/06 07:56:48;;;;;;;;;65.00;52.00;;;;;9.11;100.00;99508.13;6316336;20;2872254;-44
2024/03/06 07:59:19;;;;;;;;;70.67;57.00;;;;;9.07;100.00;99509.25;6314781;20;2836838;-43
2024/03/06 08:01:49;;;;;;;;;62.33;49.00;;;;;9.11;100.00;99513.47;6314759;20;3626309;-44
2024/03/06 08:04:18;;;;;;;;;68.00;53.00;;;;;9.64;100.00;99506.75;6313698;20;3634629;-44
2024/03/06 08:06:48;;;;;;;;;67.00;53.67;;;;;9.62;100.00;99509.53;6314022;20;2870230;-45
2024/03/06 08:09:19;;;;;;;;;58.00;47.00;;;;;9.62;100.00;99511.34;6314677;20;2853558;-44
2024/03/06 08:11:49;;;;;;;;;50.00;41.00;;;;;9.51;100.00;99517.34;6314837;20;2850292;-48
2024/03/06 08:14:18;;;;;;;;;53.33;42.00;;;;;9.61;100.00;99523.91;6283376;20;3607612;-41
2024/03/06 08:16:47;;;;;;;;;51.50;41.00;;;;;9.71;100.00;99523.31;6314926;20;2850295;-44
2024/03/06 08:19:16;;;;;;;;;48.00;39.00;;;;;9.77;100.00;99518.47;6284581;20;2856555;-44
2024/03/06 08:21:44;;;;;;;;;48.00;40.00;;;;;9.89;100.00;99517.69;6281841;20;2848200;-45
2024/03/06 08:24:15;;;;;;;;;50.00;42.00;;;;;10.04;100.00;99515.03;6281933;20;2836836;-44
2024/03/06 08:26:44;;;;;;;;;51.00;39.00;;;;;9.92;100.00;99521.16;6283395;20;3617958;-46
2024/03/06 08:29:13;;;;;;;;;45.50;36.00;;;;;10.10;100.00;99517.31;6314059;20;2846243;-44
2024/03/06 08:31:42;;;;;;;;;50.50;41.00;;;;;10.00;100.00;99521.53;6282712;20;2859713;-44
2024/03/06 08:34:11;;;;;;;;;46.00;39.00;;;;;10.26;100.00;99518.09;6282008;20;3607585;-42
2024/03/06 08:36:41;;;;;;;;;44.67;37.33;;;;;10.54;100.00;99519.06;6311179;20;2850443;-42
2024/03/06 08:39:13;;;;;;;;;41.00;37.00;;;;;10.62;100.00;99527.47;6314104;20;2848351;-42
2024/03/06 08:41:42;;;;;;;;;43.50;35.50;;;;;11.19;95.72;99527.31;6282539;20;2839941;-43
2024/03/06 08:44:10;;;;;;;;;37.00;33.00;;;;;12.00;92.94;99523.59;6282774;20;2577527;-42
2024/03/06 08:46:39;;;;;;;;;41.67;35.33;;;;;10.89;94.51;99519.44;6319717;20;3579488;-42
2024/03/06 08:49:08;;;;;;;;;44.33;34.00;;;;;11.46;92.59;99521.06;6281907;20;3602375;-42
2024/03/06 08:51:38;;;;;;;;;38.67;33.00;;;;;11.61;93.41;99527.19;6284545;20;3609645;-42
2024/03/06 08:54:10;;;;;;;;;31.67;29.00;;;;;11.43;92.69;99530.19;6282603;20;3594394;-42
2024/03/06 08:56:44;;;;;;;;;40.00;34.67;;;;;11.97;89.91;99528.34;6316577;20;3602368;-42
2024/03/06 08:59:13;;;;;;;;;42.00;33.00;;;;;11.73;90.03;99531.75;6283680;20;3620204;-43
2024/03/06 09:01:41;;;;;;;;;36.00;28.00;;;;;12.13;86.76;99536.19;6283894;20;2665021;-41
2024/03/06 09:04:09;;;;;;;;;33.00;30.00;;;;;12.01;85.26;99530.72;6283597;20;3588910;-42
2024/03/06 09:06:39;;;;;;;;;36.00;33.67;;;;;12.05;86.82;99526.84;6280181;20;2860157;-44
2024/03/06 09:09:09;;;;;;;;;49.33;41.67;;;;;11.97;86.89;99528.34;6310667;20;3603395;-43
2024/03/06 09:11:38;;;;;;;;;39.50;35.50;;;;;12.74;81.98;99529.09;6314459;20;2850332;-45
2024/03/06 09:14:06;;;;;;;;;25.67;23.67;;;;;12.60;77.76;99531.94;6283829;20;3583614;-41
2024/03/06 09:16:36;;;;;;;;;24.67;23.00;;;;;12.77;77.13;99528.00;6281070;20;2845138;-42
2024/03/06 09:19:05;;;;;;;;;39.00;33.00;;;;;12.37;82.89;99531.75;6313885;20;3610743;-42
2024/03/06 09:21:34;;;;;;;;;30.67;27.33;;;;;12.80;81.05;99533.22;6284478;20;3596130;-41
2024/03/06 09:24:04;;;;;;;;;29.33;27.67;;;;;12.69;82.52;99536.66;6280219;20;3599293;-43
2024/03/06 09:26:33;;;;;;;;;27.33;27.00;;;;;13.25;80.48;99526.22;6315680;20;3594050;-41
2024/03/06 09:29:01;;;;;;;;;30.33;27.33;;;;;13.58;77.38;99528.22;6282992;20;3593041;-42
2024/03/06 09:31:31;;;;;;;;;32.00;28.67;;;;;13.14;80.68;99536.97;6277593;20;2849417;-45
2024/03/06 09:34:00;;;;;;;;;28.33;24.33;;;;;13.00;80.28;99531.72;6313124;20;3587769;-48
2024/03/06 09:36:28;;;;;;;;;27.33;24.67;;;;;12.63;79.09;99537.97;6282871;20;3600268;-43
2024/03/06 09:38:57;;;;;;;;;31.67;28.67;;;;;13.39;75.94;99530.59;6284014;20;3604447;-43
2024/03/06 09:41:26;;;;;;;;;29.00;27.00;;;;;14.30;72.80;99539.75;6282652;20;3592010;-42
2024/03/06 09:43:55;;;;;;;;;26.67;24.33;;;;;13.64;72.32;99540.41;6282008;20;3591953;-46
2024/03/06 09:46:24;;;;;;;;;23.50;23.00;;;;;13.47;73.10;99533.56;6280957;20;2832665;-45
2024/03/06 09:48:54;;;;;;;;;24.33;21.00;;;;;13.45;72.24;99522.03;6279226;20;3586782;-44
2024/03/06 09:51:23;;;;;;;;;25.67;24.00;;;;;14.07;70.11;99520.84;6279570;20;3582702;-46
2024/03/06 09:53:52;;;;;;;;;28.00;27.00;;;;;12.98;73.49;99530.97;6280640;20;3604485;-44
2024/03/06 09:56:22;;;;;;;;;26.00;23.67;;;;;13.42;71.33;99527.66;6281896;20;3582580;-46
2024/03/06 09:58:53;;;;;;;;;14.67;13.00;;;;;14.44;70.30;99524.19;6279565;20;3543018;-49
2024/03/06 10:01:24;;;;;;;;;19.00;18.33;;;;;13.78;71.46;99524.00;6283385;20;3577469;-48
2024/03/06 10:03:53;;;;;;;;;22.33;21.00;;;;;13.76;71.29;99520.53;6277751;20;3579450;-52
2024/03/06 10:06:22;;;;;;;;;28.33;25.00;;;;;13.97;68.67;99522.56;6283064;20;3591409;-51
2024/03/06 10:08:51;;;;;;;;;23.00;21.00;;;;;13.52;72.25;99527.84;6281602;20;2848244;-47
2024/03/06 10:11:20;;;;;;;;;24.50;20.00;;;;;14.19;71.97;99519.91;6280621;20;2852383;-50
2024/03/06 10:13:53;;;;;;;;;22.00;19.00;;;;;14.62;67.36;99516.47;6281310;20;3571093;-48
2024/03/06 10:16:22;;;;;;;;;17.00;17.00;;;;;14.65;67.27;99524.34;6278612;20;2830567;-47
2024/03/06 10:18:51;;;;;;;;;22.00;18.00;;;;;14.30;66.78;99524.44;6282623;20;2823236;-48
2024/03/06 10:21:33;;;;;;;;;20.00;19.00;;;;;15.33;65.46;99521.47;6280420;20;2839872;-46
2024/03/06 10:24:02;;;;;;;;;20.50;19.50;;;;;14.55;66.82;99519.81;6279880;20;2846149;-46
2024/03/06 10:26:31;;;;;;;;;21.50;21.50;;;;;14.79;64.46;99522.34;6278468;20;2838955;-47
2024/03/06 10:29:01;;;;;;;;;20.50;18.50;;;;;14.30;65.50;99515.47;6283036;20;2841272;-46
2024/03/06 10:31:30;;;;;;;;;23.33;21.67;;;;;13.98;69.88;99508.06;6281991;20;3563905;-47
2024/03/06 10:33:59;;;;;;;;;24.00;21.00;;;;;14.43;64.99;99513.53;6276516;20;2831553;-46
2024/03/06 10:36:27;;;;;;;;;14.50;14.50;;;;;14.80;66.42;99513.28;6281166;20;2500305;-45
2024/03/06 10:39:02;;;;;;;;;19.67;19.00;;;;;15.19;64.85;99511.78;6277489;20;2842047;-45
2024/03/06 10:41:34;;;;;;;;;25.33;23.00;;;;;15.00;64.39;99507.06;6312127;20;3580557;-46
2024/03/06 10:44:04;;;;;;;;;23.67;22.67;;;;;14.35;66.27;99505.16;6277105;20;3580621;-48
2024/03/06 10:46:36;;;;;;;;;24.67;23.33;;;;;15.40;63.28;99506.41;6311888;20;3590003;-45
2024/03/06 10:49:05;;;;;;;;;28.33;28.00;;;;;16.52;59.76;99498.59;6277419;20;3594024;-43
2024/03/06 10:51:35;;;;;;;;;23.33;21.33;;;;;15.53;61.84;99499.00;6280809;20;3573265;-44
2024/03/06 10:54:04;;;;;;;;;24.67;22.00;;;;;16.08;61.95;99487.13;6277900;20;3580489;-47
2024/03/06 10:56:34;;;;;;;;;25.00;22.00;;;;;16.59;61.62;99488.91;6278622;20;2833640;-45
2024/03/06 10:59:05;;;;;;;;;26.67;23.33;;;;;15.27;65.35;99489.50;6313721;20;3589884;-45
2024/03/06 11:01:34;;;;;;;;;28.67;27.67;;;;;14.87;67.25;99482.03;6285768;20;3593015;-45
2024/03/06 11:04:05;;;;;;;;;28.33;27.00;;;;;14.61;67.23;99485.06;6283891;20;3594080;-45
2024/03/06 11:06:34;;;;;;;;;28.33;27.00;;;;;15.37;64.48;99485.03;6284866;20;3606571;-45
2024/03/06 11:09:03;;;;;;;;;24.00;22.67;;;;;15.50;64.33;99474.88;6286222;20;3585703;-45
2024/03/06 11:11:32;;;;;;;;;25.67;25.67;;;;;16.11;63.68;99478.72;6283310;20;3592041;-46
2024/03/06 11:14:08;;;;;;;;;26.67;24.67;;;;;16.33;60.35;99473.13;6285321;20;3584702;-47
2024/03/06 11:16:59;;;;;;;;;23.00;22.00;;;;;15.08;62.37;99464.00;6283645;20;3570058;-50
2024/03/06 11:19:54;;;;;;;;;34.33;29.67;;;;;15.81;63.67;99461.47;6284114;20;3609773;-46